createdAt,value
2023-02-12T00:00:07.235Z,100.00
2023-02-12T00:02:34.043Z,100.00
2023-02-12T00:05:00.517Z,100.00
2023-02-12T00:07:31.241Z,100.00
2023-02-12T00:09:57.669Z,100.00
2023-02-12T00:12:24.060Z,100.00
2023-02-12T00:14:50.452Z,100.00
2023-02-12T00:17:16.825Z,100.00
2023-02-12T00:19:43.202Z,100.00
2023-02-12T00:22:09.599Z,100.00
2023-02-12T00:24:35.997Z,100.00
2023-02-12T00:27:02.391Z,100.00
2023-02-12T00:29:28.950Z,100.00
2023-02-12T00:31:55.557Z,100.00
2023-02-12T00:34:21.996Z,100.00
2023-02-12T00:36:48.464Z,100.00
2023-02-12T00:39:14.868Z,100.00
2023-02-12T00:41:41.249Z,100.00
2023-02-12T00:44:07.639Z,100.00
2023-02-12T00:46:34.083Z,100.00
2023-02-12T00:49:00.507Z,100.00
2023-02-12T00:51:26.975Z,100.00
2023-02-12T00:53:53.501Z,100.00
2023-02-12T00:56:19.952Z,100.00
2023-02-12T00:58:46.350Z,100.00
2023-02-12T01:01:12.874Z,100.00
2023-02-12T01:03:39.338Z,100.00
2023-02-12T01:06:06.359Z,100.00
2023-02-12T01:08:32.929Z,100.00
2023-02-12T01:11:02.020Z,100.00
2023-02-12T01:13:30.491Z,100.00
2023-02-12T01:16:08.897Z,100.00
2023-02-12T01:18:37.321Z,100.00
2023-02-12T01:21:13.205Z,100.00
2023-02-12T01:23:40.417Z,100.00
2023-02-12T01:26:07.520Z,100.00
2023-02-12T01:28:33.965Z,100.00
2023-02-12T01:31:00.470Z,100.00
2023-02-12T01:33:26.956Z,100.00
2023-02-12T01:35:53.634Z,100.00
2023-02-12T01:38:20.240Z,100.00
2023-02-12T01:40:46.729Z,100.00
2023-02-12T01:43:13.187Z,100.00
2023-02-12T01:45:50.496Z,100.00
2023-02-12T01:48:18.510Z,100.00
2023-02-12T01:50:47.958Z,100.00
2023-02-12T01:53:20.072Z,100.00
2023-02-12T01:55:48.906Z,100.00
2023-02-12T01:58:16.998Z,100.00
2023-02-12T02:00:43.692Z,100.00
2023-02-12T02:03:10.224Z,100.00
2023-02-12T02:05:45.617Z,100.00
2023-02-12T02:08:13.423Z,100.00
2023-02-12T02:10:39.861Z,100.00
2023-02-12T02:13:25.069Z,100.00
2023-02-12T02:15:57.480Z,100.00
2023-02-12T02:18:32.058Z,100.00
2023-02-12T02:21:23.358Z,100.00
2023-02-12T02:24:18.747Z,100.00
2023-02-12T02:27:10.149Z,100.00
2023-02-12T02:29:51.671Z,100.00
2023-02-12T02:32:28.596Z,100.00
2023-02-12T02:34:54.914Z,100.00
2023-02-12T02:37:31.414Z,100.00
2023-02-12T02:40:16.129Z,100.00
2023-02-12T02:42:57.783Z,100.00
2023-02-12T02:45:44.889Z,100.00
2023-02-12T02:48:18.157Z,100.00
2023-02-12T02:50:49.834Z,100.00
2023-02-12T02:53:26.576Z,100.00
2023-02-12T02:55:56.945Z,100.00
2023-02-12T02:58:28.672Z,100.00
2023-02-12T03:01:00.944Z,100.00
2023-02-12T03:03:34.224Z,100.00
2023-02-12T03:06:26.690Z,100.00
2023-02-12T03:09:00.633Z,100.00
2023-02-12T03:11:30.312Z,100.00
2023-02-12T03:14:07.957Z,100.00
2023-02-12T03:16:39.687Z,100.00
2023-02-12T03:19:16.280Z,100.00
2023-02-12T03:21:58.562Z,100.00
2023-02-12T03:24:44.259Z,100.00
2023-02-12T03:28:02.858Z,100.00
2023-02-12T03:30:57.135Z,100.00
2023-02-12T03:33:52.663Z,100.00
2023-02-12T03:36:53.128Z,100.00
2023-02-12T03:39:31.334Z,100.00
2023-02-12T03:42:16.146Z,100.00
2023-02-12T03:44:54.685Z,100.00
2023-02-12T03:47:31.289Z,100.00
2023-02-12T03:50:28.285Z,100.00
2023-02-12T03:52:55.306Z,100.00
2023-02-12T03:55:21.893Z,100.00
2023-02-12T03:57:56.143Z,100.00
2023-02-12T04:00:24.759Z,100.00
2023-02-12T04:02:52.534Z,100.00
2023-02-12T04:05:22.316Z,100.00
2023-02-12T04:07:50.681Z,100.00
2023-02-12T04:10:18.762Z,100.00
2023-02-12T04:13:06.004Z,100.00
2023-02-12T04:16:05.573Z,100.00
2023-02-12T04:18:42.953Z,100.00
2023-02-12T04:21:34.402Z,100.00
2023-02-12T04:24:44.580Z,100.00
2023-02-12T04:27:19.422Z,100.00
2023-02-12T04:30:06.751Z,100.00
2023-02-12T04:32:41.635Z,100.00
2023-02-12T04:35:08.364Z,100.00
2023-02-12T04:37:34.701Z,100.00
2023-02-12T04:40:06.097Z,100.00
2023-02-12T04:42:41.798Z,100.00
2023-02-12T04:45:11.727Z,100.00
2023-02-12T04:47:38.829Z,100.00
2023-02-12T04:50:06.014Z,100.00
2023-02-12T04:52:32.492Z,100.00
2023-02-12T04:54:58.917Z,100.00
2023-02-12T04:57:25.635Z,100.00
2023-02-12T04:59:52.074Z,100.00
2023-02-12T05:02:18.551Z,100.00
2023-02-12T05:04:44.976Z,100.00
2023-02-12T05:07:12.174Z,100.00
2023-02-12T05:09:38.597Z,100.00
2023-02-12T05:12:05.141Z,100.00
2023-02-12T05:14:31.697Z,100.00
2023-02-12T05:16:58.119Z,100.00
2023-02-12T05:19:30.814Z,100.00
2023-02-12T05:21:57.649Z,100.00
2023-02-12T05:24:24.451Z,100.00
2023-02-12T05:26:51.686Z,100.00
2023-02-12T05:29:18.820Z,100.00
2023-02-12T05:31:46.093Z,100.00
2023-02-12T05:34:13.020Z,100.00
2023-02-12T05:36:43.396Z,100.00
2023-02-12T05:39:17.091Z,100.00
2023-02-12T05:41:43.575Z,100.00
2023-02-12T05:44:12.021Z,100.00
2023-02-12T05:46:39.392Z,100.00
2023-02-12T05:49:05.989Z,100.00
2023-02-12T05:51:33.357Z,100.00
2023-02-12T05:54:03.690Z,100.00
2023-02-12T05:56:38.245Z,100.00
2023-02-12T05:59:08.830Z,100.00
2023-02-12T06:01:38.902Z,100.00
2023-02-12T06:04:07.883Z,100.00
2023-02-12T06:06:35.222Z,100.00
2023-02-12T06:09:01.905Z,100.00
2023-02-12T06:11:28.678Z,100.00
2023-02-12T06:13:55.096Z,100.00
2023-02-12T06:16:27.679Z,100.00
2023-02-12T06:18:56.233Z,100.00
2023-02-12T06:21:24.688Z,100.00
2023-02-12T06:23:52.197Z,100.00
2023-02-12T06:26:19.440Z,100.00
2023-02-12T06:28:46.046Z,100.00
2023-02-12T06:31:21.600Z,100.00
2023-02-12T06:33:48.401Z,100.00
2023-02-12T06:36:15.406Z,100.00
2023-02-12T06:38:42.179Z,100.00
2023-02-12T06:41:08.688Z,100.00
2023-02-12T06:43:35.741Z,100.00
2023-02-12T06:46:04.043Z,100.00
2023-02-12T06:48:31.055Z,100.00
2023-02-12T06:51:04.170Z,100.00
2023-02-12T06:53:30.561Z,100.00
2023-02-12T06:55:57.278Z,100.00
2023-02-12T06:58:23.861Z,100.00
2023-02-12T07:00:50.326Z,100.00
2023-02-12T07:03:16.789Z,100.00
2023-02-12T07:05:43.206Z,100.00
2023-02-12T07:08:09.783Z,100.00
2023-02-12T07:10:36.189Z,100.00
2023-02-12T07:13:04.742Z,100.00
2023-02-12T07:15:31.619Z,100.00
2023-02-12T07:17:58.042Z,100.00
2023-02-12T07:20:24.440Z,100.00
2023-02-12T07:22:50.878Z,100.00
2023-02-12T07:25:17.473Z,100.00
2023-02-12T07:27:44.082Z,100.00
2023-02-12T07:30:10.874Z,100.00
2023-02-12T07:32:37.282Z,100.00
2023-02-12T07:35:03.832Z,100.00
2023-02-12T07:37:30.281Z,100.00
2023-02-12T07:39:56.681Z,100.00
2023-02-12T07:42:23.276Z,100.00
2023-02-12T07:44:50.385Z,100.00
2023-02-12T07:47:17.179Z,100.00
2023-02-12T07:49:43.706Z,100.00
2023-02-12T07:52:13.219Z,100.00
2023-02-12T07:54:39.858Z,100.00
2023-02-12T07:57:06.317Z,100.00
2023-02-12T07:59:32.789Z,100.00
2023-02-12T08:02:00.856Z,100.00
2023-02-12T08:04:27.452Z,100.00
2023-02-12T08:06:55.710Z,100.00
2023-02-12T08:09:25.316Z,100.00
2023-02-12T08:11:52.014Z,100.00
2023-02-12T08:14:20.877Z,100.00
2023-02-12T08:16:48.958Z,100.00
2023-02-12T08:19:21.633Z,100.00
2023-02-12T08:21:51.266Z,100.00
2023-02-12T08:24:18.113Z,100.00
2023-02-12T08:26:45.065Z,100.00
2023-02-12T08:29:15.021Z,100.00
2023-02-12T08:31:44.082Z,100.00
2023-02-12T08:34:23.489Z,100.00
2023-02-12T08:36:51.837Z,100.00
2023-02-12T08:39:18.918Z,100.00
2023-02-12T08:41:46.576Z,100.00
2023-02-12T08:44:13.698Z,100.00
2023-02-12T08:46:44.368Z,100.00
2023-02-12T08:49:16.744Z,100.00
2023-02-12T08:51:48.522Z,100.00
2023-02-12T08:54:17.539Z,100.00
2023-02-12T08:56:45.334Z,100.00
2023-02-12T08:59:14.178Z,100.00
2023-02-12T09:01:44.755Z,100.00
2023-02-12T09:04:17.941Z,100.00
2023-02-12T09:06:45.812Z,100.00
2023-02-12T09:09:15.356Z,100.00
2023-02-12T09:11:42.179Z,100.00
2023-02-12T09:14:12.295Z,100.00
2023-02-12T09:16:40.337Z,100.00
2023-02-12T09:19:08.211Z,100.00
2023-02-12T09:21:35.160Z,100.00
2023-02-12T09:24:03.568Z,100.00
2023-02-12T09:26:31.023Z,100.00
2023-02-12T09:28:57.834Z,100.00
2023-02-12T09:31:27.135Z,100.00
2023-02-12T09:34:05.126Z,100.00
2023-02-12T09:36:32.744Z,100.00
2023-02-12T09:39:08.459Z,100.00
2023-02-12T09:41:55.117Z,100.00
2023-02-12T09:44:39.876Z,100.00
2023-02-12T09:47:24.076Z,100.00
2023-02-12T09:50:27.450Z,99.80
2023-02-12T09:52:56.956Z,99.84
2023-02-12T09:55:30.408Z,99.34
2023-02-12T09:57:57.075Z,98.13
2023-02-12T10:00:31.994Z,98.47
2023-02-12T10:03:05.532Z,97.46
2023-02-12T10:05:39.501Z,96.78
2023-02-12T10:08:32.036Z,95.77
2023-02-12T10:11:20.383Z,95.82
2023-02-12T10:14:05.669Z,95.50
2023-02-12T10:16:32.070Z,94.27
2023-02-12T10:19:04.441Z,93.60
2023-02-12T10:21:44.026Z,92.00
2023-02-12T10:24:30.053Z,90.37
2023-02-12T10:27:02.505Z,90.33
2023-02-12T10:29:38.216Z,90.11
2023-02-12T10:32:11.822Z,88.94
2023-02-12T10:34:41.359Z,86.61
2023-02-12T10:37:16.895Z,86.83
2023-02-12T10:39:49.541Z,84.45
2023-02-12T10:42:26.733Z,83.37
2023-02-12T10:44:53.171Z,81.92
2023-02-12T10:47:24.078Z,82.86
2023-02-12T10:50:02.121Z,80.71
2023-02-12T10:52:45.029Z,79.96
2023-02-12T10:55:28.054Z,81.73
2023-02-12T10:57:55.761Z,82.62
2023-02-12T11:00:43.541Z,80.91
2023-02-12T11:03:13.093Z,81.66
2023-02-12T11:05:42.926Z,83.08
2023-02-12T11:08:38.751Z,81.10
2023-02-12T11:11:19.647Z,82.22
2023-02-12T11:14:17.486Z,81.16
2023-02-12T11:16:52.060Z,79.76
2023-02-12T11:19:27.715Z,79.45
2023-02-12T11:22:07.851Z,79.23
2023-02-12T11:24:36.962Z,79.65
2023-02-12T11:27:12.683Z,78.53
2023-02-12T11:29:43.208Z,78.28
2023-02-12T11:32:17.488Z,78.72
2023-02-12T11:34:43.974Z,78.44
2023-02-12T11:37:19.922Z,76.75
2023-02-12T11:39:48.781Z,76.03
2023-02-12T11:42:23.209Z,75.58
2023-02-12T11:44:59.284Z,76.88
2023-02-12T11:47:31.813Z,77.35
2023-02-12T11:50:33.236Z,74.77
2023-02-12T11:53:04.603Z,74.63
2023-02-12T11:55:35.225Z,74.90
2023-02-12T11:58:15.390Z,73.48
2023-02-12T12:00:52.179Z,74.78
2023-02-12T12:03:28.755Z,72.92
2023-02-12T12:06:17.085Z,74.00
2023-02-12T12:08:48.304Z,74.15
2023-02-12T12:11:25.053Z,73.51
2023-02-12T12:14:03.748Z,72.86
2023-02-12T12:17:06.368Z,73.25
2023-02-12T12:19:54.786Z,69.39
2023-02-12T12:22:31.152Z,72.10
2023-02-12T12:25:09.961Z,72.04
2023-02-12T12:28:02.081Z,72.14
2023-02-12T12:30:37.832Z,72.22
2023-02-12T12:33:13.131Z,71.91
2023-02-12T12:35:50.497Z,71.98
2023-02-12T12:38:52.922Z,70.43
2023-02-12T12:41:48.047Z,67.34
2023-02-12T12:44:35.349Z,70.94
2023-02-12T12:47:32.459Z,69.98
2023-02-12T12:50:10.994Z,71.06
2023-02-12T12:52:40.437Z,70.53
2023-02-12T12:55:44.253Z,70.49
2023-02-12T12:58:19.799Z,69.81
2023-02-12T13:01:26.223Z,66.83
2023-02-12T13:04:22.542Z,67.46
2023-02-12T13:07:07.914Z,68.38
2023-02-12T13:09:46.485Z,67.41
2023-02-12T13:12:33.860Z,66.79
2023-02-12T13:15:38.964Z,65.02
2023-02-12T13:18:20.398Z,66.77
2023-02-12T13:20:56.296Z,59.70
2023-02-12T13:23:51.119Z,59.83
2023-02-12T13:26:37.490Z,63.18
2023-02-12T13:29:16.567Z,60.82
2023-02-12T13:31:50.138Z,61.16
2023-02-12T13:34:18.625Z,58.35
2023-02-12T13:36:46.115Z,58.74
2023-02-12T13:39:12.556Z,56.99
2023-02-12T13:41:45.524Z,56.59
2023-02-12T13:44:37.630Z,54.25
2023-02-12T13:47:22.794Z,55.86
2023-02-12T13:49:52.057Z,51.18
2023-02-12T13:52:40.642Z,53.28
2023-02-12T13:55:28.538Z,51.89
2023-02-12T13:58:32.221Z,46.21
2023-02-12T14:01:02.653Z,48.42
2023-02-12T14:03:31.058Z,49.72
2023-02-12T14:06:17.888Z,46.84
2023-02-12T14:08:48.361Z,45.99
2023-02-12T14:11:19.336Z,46.43
2023-02-12T14:13:52.609Z,48.70
2023-02-12T14:16:40.601Z,44.65
2023-02-12T14:19:44.461Z,44.92
2023-02-12T14:22:32.797Z,46.79
2023-02-12T14:25:02.444Z,46.61
2023-02-12T14:27:28.987Z,47.66
2023-02-12T14:30:01.174Z,46.59
2023-02-12T14:32:58.208Z,46.35
2023-02-12T14:35:36.815Z,46.47
2023-02-12T14:38:47.785Z,46.20
2023-02-12T14:41:38.948Z,45.89
2023-02-12T14:44:17.769Z,45.92
2023-02-12T14:46:51.861Z,47.77
2023-02-12T14:49:44.398Z,47.27
2023-02-12T14:52:13.747Z,48.05
2023-02-12T14:54:42.498Z,49.50
2023-02-12T14:57:21.887Z,50.10
2023-02-12T14:59:49.929Z,51.35
2023-02-12T15:02:26.842Z,51.46
2023-02-12T15:04:58.294Z,47.67
2023-02-12T15:07:33.069Z,47.12
2023-02-12T15:10:10.177Z,42.63
2023-02-12T15:12:46.089Z,44.64
2023-02-12T15:15:12.764Z,45.24
2023-02-12T15:17:41.962Z,44.52
2023-02-12T15:20:21.016Z,45.63
2023-02-12T15:22:47.481Z,47.84
2023-02-12T15:25:25.765Z,47.21
2023-02-12T15:28:00.571Z,48.40
2023-02-12T15:30:30.446Z,45.10
2023-02-12T15:32:59.637Z,45.92
2023-02-12T15:35:32.818Z,45.99
2023-02-12T15:38:01.207Z,45.40
2023-02-12T15:40:29.641Z,47.08
2023-02-12T15:43:04.480Z,46.87
2023-02-12T15:45:36.062Z,46.21
2023-02-12T15:48:13.083Z,48.19
2023-02-12T15:51:14.204Z,49.26
2023-02-12T15:53:41.823Z,49.96
2023-02-12T15:56:18.718Z,51.62
2023-02-12T15:58:57.568Z,52.41
2023-02-12T16:01:30.375Z,52.72
2023-02-12T16:03:59.115Z,52.58
2023-02-12T16:06:28.006Z,53.23
2023-02-12T16:08:59.323Z,53.58
2023-02-12T16:11:27.182Z,53.86
2023-02-12T16:14:00.948Z,54.04
2023-02-12T16:16:40.671Z,53.80
2023-02-12T16:19:18.415Z,52.45
2023-02-12T16:21:48.184Z,53.54
2023-02-12T16:24:37.484Z,53.56
2023-02-12T16:30:48.192Z,54.91
2023-02-12T16:33:34.174Z,54.46
2023-02-12T16:36:07.579Z,55.93
2023-02-12T16:38:40.254Z,55.96
2023-02-12T16:41:18.759Z,56.82
2023-02-12T16:43:46.074Z,57.80
2023-02-12T16:46:13.802Z,58.50
2023-02-12T16:48:43.337Z,59.83
2023-02-12T16:51:26.384Z,60.61
2023-02-12T16:53:57.398Z,61.05
2023-02-12T16:56:36.081Z,60.40
2023-02-12T16:59:02.825Z,60.50
2023-02-12T17:01:33.345Z,60.10
2023-02-12T17:04:02.309Z,59.58
2023-02-12T17:06:31.154Z,59.51
2023-02-12T17:08:58.307Z,59.40
2023-02-12T17:11:26.408Z,59.89
2023-02-12T17:13:54.688Z,60.00
2023-02-12T17:16:31.092Z,60.50
2023-02-12T17:18:58.945Z,60.96
2023-02-12T17:21:31.581Z,61.07
2023-02-12T17:23:58.399Z,61.42
2023-02-12T17:26:25.431Z,61.79
2023-02-12T17:28:51.928Z,61.92
2023-02-12T17:31:20.558Z,62.18
2023-02-12T17:33:47.075Z,62.42
2023-02-12T17:36:13.560Z,62.49
2023-02-12T17:38:39.985Z,63.07
2023-02-12T17:41:10.894Z,63.50
2023-02-12T17:43:37.432Z,63.86
2023-02-12T17:46:18.490Z,64.27
2023-02-12T17:48:45.049Z,64.85
2023-02-12T17:51:13.327Z,65.26
2023-02-12T17:53:40.838Z,65.89
2023-02-12T17:56:16.463Z,66.08
2023-02-12T17:58:43.927Z,66.56
2023-02-12T18:01:13.375Z,67.22
2023-02-12T18:03:39.885Z,67.72
2023-02-12T18:06:07.329Z,68.48
2023-02-12T18:08:34.054Z,69.26
2023-02-12T18:11:06.167Z,69.45
2023-02-12T18:13:32.912Z,70.00
2023-02-12T18:15:59.389Z,70.23
2023-02-12T18:18:25.879Z,70.13
2023-02-12T18:20:52.432Z,70.40
2023-02-12T18:23:19.100Z,70.77
2023-02-12T18:25:45.531Z,71.18
2023-02-12T18:28:12.760Z,71.50
2023-02-12T18:30:42.719Z,71.65
2023-02-12T18:33:11.149Z,71.99
2023-02-12T18:35:37.617Z,72.15
2023-02-12T18:38:04.078Z,72.57
2023-02-12T18:40:30.585Z,72.51
2023-02-12T18:42:57.032Z,72.30
2023-02-12T18:45:23.716Z,73.58
2023-02-12T18:47:50.144Z,74.04
2023-02-12T18:50:16.824Z,73.87
2023-02-12T18:52:43.221Z,73.92
2023-02-12T18:55:09.656Z,74.31
2023-02-12T18:57:36.109Z,74.29
2023-02-12T19:00:04.339Z,75.01
2023-02-12T19:02:30.851Z,75.26
2023-02-12T19:04:57.359Z,75.42
2023-02-12T19:07:23.855Z,76.02
2023-02-12T19:09:50.697Z,77.08
2023-02-12T19:12:17.175Z,77.39
2023-02-12T19:14:43.635Z,77.69
2023-02-12T19:17:10.104Z,77.00
2023-02-12T19:19:36.681Z,77.16
2023-02-12T19:22:03.178Z,79.02
2023-02-12T19:24:44.383Z,79.24
2023-02-12T19:27:12.514Z,78.80
2023-02-12T19:29:38.943Z,79.33
2023-02-12T19:32:05.479Z,78.99
2023-02-12T19:34:32.048Z,79.53
2023-02-12T19:36:58.540Z,79.69
2023-02-12T19:39:25.175Z,80.11
2023-02-12T19:41:52.093Z,80.81
2023-02-12T19:44:23.214Z,81.25
2023-02-12T19:46:50.074Z,80.65
2023-02-12T19:49:19.322Z,80.91
2023-02-12T19:51:46.501Z,81.48
2023-02-12T19:54:15.078Z,81.85
2023-02-12T19:56:42.160Z,82.13
2023-02-12T19:59:08.940Z,83.45
2023-02-12T20:01:35.630Z,83.18
2023-02-12T20:04:03.326Z,81.94
2023-02-12T20:06:33.557Z,82.66
2023-02-12T20:09:00.194Z,83.95
2023-02-12T20:11:31.640Z,83.65
2023-02-12T20:13:58.322Z,83.50
2023-02-12T20:16:31.251Z,85.66
2023-02-12T20:19:04.408Z,87.59
2023-02-12T20:21:30.992Z,87.87
2023-02-12T20:23:58.490Z,87.46
2023-02-12T20:26:25.786Z,88.69
2023-02-12T20:28:52.506Z,87.83
2023-02-12T20:31:22.399Z,87.87
2023-02-12T20:33:53.063Z,90.15
2023-02-12T20:36:19.485Z,91.47
2023-02-12T20:38:50.110Z,93.17
2023-02-12T20:41:16.572Z,91.34
2023-02-12T20:43:42.965Z,91.04
2023-02-12T20:46:14.535Z,92.93
2023-02-12T20:48:42.073Z,93.37
2023-02-12T20:51:11.580Z,92.97
2023-02-12T20:53:38.766Z,97.30
2023-02-12T20:56:08.057Z,98.11
2023-02-12T20:58:34.564Z,100.00
2023-02-12T21:01:09.358Z,100.00
2023-02-12T21:03:36.639Z,100.00
2023-02-12T21:06:03.995Z,100.00
2023-02-12T21:08:31.542Z,100.00
2023-02-12T21:11:14.457Z,100.00
2023-02-12T21:13:58.567Z,100.00
2023-02-12T21:16:32.140Z,100.00
2023-02-12T21:18:58.805Z,100.00
2023-02-12T21:21:30.394Z,100.00
2023-02-12T21:23:57.773Z,100.00
2023-02-12T21:26:26.453Z,100.00
2023-02-12T21:28:55.069Z,100.00
2023-02-12T21:31:42.512Z,100.00
2023-02-12T21:34:13.302Z,100.00
2023-02-12T21:36:41.979Z,100.00
2023-02-12T21:39:11.550Z,100.00
2023-02-12T21:41:39.692Z,100.00
2023-02-12T21:44:11.910Z,100.00
2023-02-12T21:46:38.651Z,100.00
2023-02-12T21:49:05.288Z,100.00
2023-02-12T21:51:34.446Z,100.00
2023-02-12T21:54:03.703Z,100.00
2023-02-12T21:56:30.649Z,100.00
2023-02-12T21:59:05.010Z,100.00
2023-02-12T22:01:34.563Z,100.00
2023-02-12T22:04:02.764Z,100.00
2023-02-12T22:06:29.612Z,100.00
2023-02-12T22:09:01.123Z,100.00
2023-02-12T22:11:27.890Z,100.00
2023-02-12T22:13:57.309Z,100.00
2023-02-12T22:16:26.050Z,100.00
2023-02-12T22:18:59.372Z,100.00
2023-02-12T22:21:29.886Z,100.00
2023-02-12T22:23:57.276Z,100.00
2023-02-12T22:26:26.745Z,100.00
2023-02-12T22:28:59.321Z,100.00
2023-02-12T22:31:31.407Z,100.00
2023-02-12T22:34:00.957Z,100.00
2023-02-12T22:36:29.445Z,100.00
2023-02-12T22:38:59.291Z,100.00
2023-02-12T22:41:26.435Z,100.00
2023-02-12T22:43:52.857Z,100.00
2023-02-12T22:46:19.746Z,100.00
2023-02-12T22:48:46.763Z,100.00
2023-02-12T22:51:26.737Z,100.00
2023-02-12T22:53:54.631Z,100.00
2023-02-12T22:56:21.561Z,100.00
2023-02-12T22:58:48.587Z,100.00
2023-02-12T23:01:18.046Z,100.00
2023-02-12T23:03:45.904Z,100.00
2023-02-12T23:06:15.662Z,100.00
2023-02-12T23:08:43.072Z,100.00
2023-02-12T23:11:10.726Z,100.00
2023-02-12T23:13:37.498Z,100.00
2023-02-12T23:16:04.500Z,100.00
2023-02-12T23:18:31.848Z,100.00
2023-02-12T23:20:58.692Z,100.00
2023-02-12T23:23:25.483Z,100.00
2023-02-12T23:25:53.870Z,100.00
2023-02-12T23:28:21.408Z,100.00
2023-02-12T23:30:49.261Z,100.00
2023-02-12T23:33:15.980Z,100.00
2023-02-12T23:35:42.697Z,100.00
2023-02-12T23:38:09.087Z,100.00
2023-02-12T23:40:35.518Z,100.00
2023-02-12T23:43:02.007Z,100.00
2023-02-12T23:45:28.719Z,100.00
2023-02-12T23:47:55.188Z,100.00
2023-02-12T23:50:22.041Z,100.00
2023-02-12T23:52:48.482Z,100.00
2023-02-12T23:55:15.369Z,100.00
2023-02-12T23:57:41.857Z,100.00
